sensor_id;sensor_type;location;lat;lon;timestamp;temperature;humidity
74153;DHT22;62505;46.070;14.492;2023-12-29T00:00:12;22.40;67.60
74153;DHT22;62505;46.070;14.492;2023-12-29T00:02:41;22.40;67.50
74153;DHT22;62505;46.070;14.492;2023-12-29T00:05:08;22.40;67.60
74153;DHT22;62505;46.070;14.492;2023-12-29T00:07:35;22.40;67.50
74153;DHT22;62505;46.070;14.492;2023-12-29T00:10:02;22.40;67.50
74153;DHT22;62505;46.070;14.492;2023-12-29T00:12:29;22.40;67.40
74153;DHT22;62505;46.070;14.492;2023-12-29T00:14:56;22.40;67.50
74153;DHT22;62505;46.070;14.492;2023-12-29T00:17:23;22.40;67.50
74153;DHT22;62505;46.070;14.492;2023-12-29T00:19:51;22.40;67.60
74153;DHT22;62505;46.070;14.492;2023-12-29T00:22:19;22.40;67.40
74153;DHT22;62505;46.070;14.492;2023-12-29T00:24:47;22.40;67.40
74153;DHT22;62505;46.070;14.492;2023-12-29T00:27:14;22.40;67.50
74153;DHT22;62505;46.070;14.492;2023-12-29T00:29:41;22.40;67.50
74153;DHT22;62505;46.070;14.492;2023-12-29T00:32:08;22.40;67.40
74153;DHT22;62505;46.070;14.492;2023-12-29T00:34:35;22.40;67.40
74153;DHT22;62505;46.070;14.492;2023-12-29T00:37:04;22.40;67.30
74153;DHT22;62505;46.070;14.492;2023-12-29T00:39:31;22.40;67.40
74153;DHT22;62505;46.070;14.492;2023-12-29T00:42:04;22.40;67.40
74153;DHT22;62505;46.070;14.492;2023-12-29T00:44:31;22.40;67.30
74153;DHT22;62505;46.070;14.492;2023-12-29T00:46:59;22.40;67.30
74153;DHT22;62505;46.070;14.492;2023-12-29T00:49:26;22.40;67.30
74153;DHT22;62505;46.070;14.492;2023-12-29T00:51:53;22.40;67.30
74153;DHT22;62505;46.070;14.492;2023-12-29T00:54:22;22.40;67.30
74153;DHT22;62505;46.070;14.492;2023-12-29T00:56:49;22.40;67.30
74153;DHT22;62505;46.070;14.492;2023-12-29T00:59:17;22.40;67.10
74153;DHT22;62505;46.070;14.492;2023-12-29T01:01:44;22.40;67.20
74153;DHT22;62505;46.070;14.492;2023-12-29T01:04:11;22.40;67.20
74153;DHT22;62505;46.070;14.492;2023-12-29T01:06:38;22.40;67.20
74153;DHT22;62505;46.070;14.492;2023-12-29T01:09:06;22.40;67.20
74153;DHT22;62505;46.070;14.492;2023-12-29T01:11:36;22.40;67.20
74153;DHT22;62505;46.070;14.492;2023-12-29T01:14:03;22.40;67.20
74153;DHT22;62505;46.070;14.492;2023-12-29T01:16:31;22.40;67.20
74153;DHT22;62505;46.070;14.492;2023-12-29T01:18:58;22.40;67.20
74153;DHT22;62505;46.070;14.492;2023-12-29T01:21:25;22.40;67.30
74153;DHT22;62505;46.070;14.492;2023-12-29T01:23:52;22.40;67.20
74153;DHT22;62505;46.070;14.492;2023-12-29T01:26:19;22.40;67.20
74153;DHT22;62505;46.070;14.492;2023-12-29T01:28:47;22.40;67.20
74153;DHT22;62505;46.070;14.492;2023-12-29T01:31:14;22.40;67.20
74153;DHT22;62505;46.070;14.492;2023-12-29T01:33:41;22.40;67.20
74153;DHT22;62505;46.070;14.492;2023-12-29T01:36:08;22.40;67.30
74153;DHT22;62505;46.070;14.492;2023-12-29T01:38:35;22.40;67.30
74153;DHT22;62505;46.070;14.492;2023-12-29T01:41:02;22.40;67.30
74153;DHT22;62505;46.070;14.492;2023-12-29T01:43:30;22.40;67.30
74153;DHT22;62505;46.070;14.492;2023-12-29T01:45:58;22.40;67.30
74153;DHT22;62505;46.070;14.492;2023-12-29T01:48:26;22.40;67.30
74153;DHT22;62505;46.070;14.492;2023-12-29T01:50:54;22.40;67.20
74153;DHT22;62505;46.070;14.492;2023-12-29T01:53:22;22.40;67.20
74153;DHT22;62505;46.070;14.492;2023-12-29T01:55:49;22.40;67.20
74153;DHT22;62505;46.070;14.492;2023-12-29T01:58:16;22.40;67.20
74153;DHT22;62505;46.070;14.492;2023-12-29T02:00:43;22.40;68.00
74153;DHT22;62505;46.070;14.492;2023-12-29T02:03:12;22.40;67.20
74153;DHT22;62505;46.070;14.492;2023-12-29T02:05:39;22.40;67.10
74153;DHT22;62505;46.070;14.492;2023-12-29T02:08:07;22.40;67.10
74153;DHT22;62505;46.070;14.492;2023-12-29T02:10:35;22.40;67.10
74153;DHT22;62505;46.070;14.492;2023-12-29T02:13:04;22.40;67.20
74153;DHT22;62505;46.070;14.492;2023-12-29T02:15:31;22.40;67.50
74153;DHT22;62505;46.070;14.492;2023-12-29T02:18:02;22.40;67.20
74153;DHT22;62505;46.070;14.492;2023-12-29T02:20:31;22.40;67.20
74153;DHT22;62505;46.070;14.492;2023-12-29T02:22:58;22.40;67.20
74153;DHT22;62505;46.070;14.492;2023-12-29T02:25:27;22.40;67.30
74153;DHT22;62505;46.070;14.492;2023-12-29T02:27:58;22.40;67.20
74153;DHT22;62505;46.070;14.492;2023-12-29T02:30:30;22.40;67.10
74153;DHT22;62505;46.070;14.492;2023-12-29T02:33:04;22.40;67.30
74153;DHT22;62505;46.070;14.492;2023-12-29T02:35:34;22.40;67.20
74153;DHT22;62505;46.070;14.492;2023-12-29T02:38:02;22.40;67.20
74153;DHT22;62505;46.070;14.492;2023-12-29T02:40:31;22.40;67.30
74153;DHT22;62505;46.070;14.492;2023-12-29T02:42:58;22.40;67.20
74153;DHT22;62505;46.070;14.492;2023-12-29T02:45:25;22.40;67.20
74153;DHT22;62505;46.070;14.492;2023-12-29T02:47:53;22.40;67.20
74153;DHT22;62505;46.070;14.492;2023-12-29T02:50:20;22.40;67.20
74153;DHT22;62505;46.070;14.492;2023-12-29T02:52:47;22.40;67.10
74153;DHT22;62505;46.070;14.492;2023-12-29T02:55:14;22.40;67.20
74153;DHT22;62505;46.070;14.492;2023-12-29T02:57:42;22.40;67.20
74153;DHT22;62505;46.070;14.492;2023-12-29T03:00:09;22.40;67.20
74153;DHT22;62505;46.070;14.492;2023-12-29T03:02:36;22.40;67.20
74153;DHT22;62505;46.070;14.492;2023-12-29T03:05:04;22.40;67.20
74153;DHT22;62505;46.070;14.492;2023-12-29T03:07:31;22.40;67.20
74153;DHT22;62505;46.070;14.492;2023-12-29T03:09:58;22.40;67.20
74153;DHT22;62505;46.070;14.492;2023-12-29T03:12:25;22.40;67.10
74153;DHT22;62505;46.070;14.492;2023-12-29T03:14:53;22.40;67.10
74153;DHT22;62505;46.070;14.492;2023-12-29T03:17:20;22.40;67.10
74153;DHT22;62505;46.070;14.492;2023-12-29T03:19:47;22.40;67.10
74153;DHT22;62505;46.070;14.492;2023-12-29T03:22:14;22.40;67.00
74153;DHT22;62505;46.070;14.492;2023-12-29T03:24:41;22.40;67.90
74153;DHT22;62505;46.070;14.492;2023-12-29T03:27:08;22.40;67.10
74153;DHT22;62505;46.070;14.492;2023-12-29T03:29:35;22.40;67.00
74153;DHT22;62505;46.070;14.492;2023-12-29T03:32:04;22.40;67.00
74153;DHT22;62505;46.070;14.492;2023-12-29T03:34:32;22.40;67.00
74153;DHT22;62505;46.070;14.492;2023-12-29T03:36:59;22.40;67.00
74153;DHT22;62505;46.070;14.492;2023-12-29T03:39:26;22.40;67.00
74153;DHT22;62505;46.070;14.492;2023-12-29T03:41:53;22.40;67.00
74153;DHT22;62505;46.070;14.492;2023-12-29T03:44:20;22.40;67.00
74153;DHT22;62505;46.070;14.492;2023-12-29T03:46:47;22.40;66.90
74153;DHT22;62505;46.070;14.492;2023-12-29T03:49:16;22.40;67.00
74153;DHT22;62505;46.070;14.492;2023-12-29T03:51:43;22.40;66.90
74153;DHT22;62505;46.070;14.492;2023-12-29T03:54:10;22.40;67.00
74153;DHT22;62505;46.070;14.492;2023-12-29T03:56:37;22.40;66.90
74153;DHT22;62505;46.070;14.492;2023-12-29T03:59:04;22.40;66.90
74153;DHT22;62505;46.070;14.492;2023-12-29T04:01:33;22.40;66.90
74153;DHT22;62505;46.070;14.492;2023-12-29T04:03:59;22.40;67.00
74153;DHT22;62505;46.070;14.492;2023-12-29T04:06:28;22.40;66.90
74153;DHT22;62505;46.070;14.492;2023-12-29T04:08:55;22.40;66.90
74153;DHT22;62505;46.070;14.492;2023-12-29T04:11:22;22.40;66.90
74153;DHT22;62505;46.070;14.492;2023-12-29T04:13:49;22.40;66.90
74153;DHT22;62505;46.070;14.492;2023-12-29T04:16:16;22.40;67.00
74153;DHT22;62505;46.070;14.492;2023-12-29T04:18:43;22.40;67.00
74153;DHT22;62505;46.070;14.492;2023-12-29T04:21:13;22.40;67.00
74153;DHT22;62505;46.070;14.492;2023-12-29T04:23:42;22.40;66.90
74153;DHT22;62505;46.070;14.492;2023-12-29T04:26:09;22.40;67.00
74153;DHT22;62505;46.070;14.492;2023-12-29T04:28:36;22.40;66.90
74153;DHT22;62505;46.070;14.492;2023-12-29T04:31:03;22.40;66.90
74153;DHT22;62505;46.070;14.492;2023-12-29T04:33:30;22.40;66.90
74153;DHT22;62505;46.070;14.492;2023-12-29T04:35:57;22.40;66.90
74153;DHT22;62505;46.070;14.492;2023-12-29T04:38:24;22.40;66.80
74153;DHT22;62505;46.070;14.492;2023-12-29T04:40:53;22.40;66.90
74153;DHT22;62505;46.070;14.492;2023-12-29T04:43:20;22.40;66.90
74153;DHT22;62505;46.070;14.492;2023-12-29T04:45:47;22.40;66.90
74153;DHT22;62505;46.070;14.492;2023-12-29T04:48:14;22.40;66.90
74153;DHT22;62505;46.070;14.492;2023-12-29T04:50:41;22.40;66.90
74153;DHT22;62505;46.070;14.492;2023-12-29T04:53:08;22.40;66.90
74153;DHT22;62505;46.070;14.492;2023-12-29T04:55:35;22.40;66.90
74153;DHT22;62505;46.070;14.492;2023-12-29T04:58:04;22.40;66.90
74153;DHT22;62505;46.070;14.492;2023-12-29T05:00:32;22.40;66.90
74153;DHT22;62505;46.070;14.492;2023-12-29T05:02:59;22.40;66.90
74153;DHT22;62505;46.070;14.492;2023-12-29T05:05:26;22.40;66.90
74153;DHT22;62505;46.070;14.492;2023-12-29T05:07:53;22.40;66.90
74153;DHT22;62505;46.070;14.492;2023-12-29T05:10:20;22.40;66.90
74153;DHT22;62505;46.070;14.492;2023-12-29T05:12:47;22.40;66.90
74153;DHT22;62505;46.070;14.492;2023-12-29T05:15:15;22.40;66.90
74153;DHT22;62505;46.070;14.492;2023-12-29T05:17:42;22.40;66.90
74153;DHT22;62505;46.070;14.492;2023-12-29T05:20:10;22.40;66.90
74153;DHT22;62505;46.070;14.492;2023-12-29T05:22:37;22.40;66.90
74153;DHT22;62505;46.070;14.492;2023-12-29T05:25:04;22.40;66.90
74153;DHT22;62505;46.070;14.492;2023-12-29T05:27:31;22.40;66.80
74153;DHT22;62505;46.070;14.492;2023-12-29T05:29:58;22.40;66.80
74153;DHT22;62505;46.070;14.492;2023-12-29T05:32:27;22.40;66.90
74153;DHT22;62505;46.070;14.492;2023-12-29T05:34:54;22.40;66.80
74153;DHT22;62505;46.070;14.492;2023-12-29T05:37:21;22.40;66.80
74153;DHT22;62505;46.070;14.492;2023-12-29T05:39:48;22.40;66.90
74153;DHT22;62505;46.070;14.492;2023-12-29T05:42:18;22.40;66.90
74153;DHT22;62505;46.070;14.492;2023-12-29T05:44:45;22.40;67.00
74153;DHT22;62505;46.070;14.492;2023-12-29T05:47:12;22.40;66.80
74153;DHT22;62505;46.070;14.492;2023-12-29T05:49:40;22.40;66.80
74153;DHT22;62505;46.070;14.492;2023-12-29T05:52:08;22.40;66.80
74153;DHT22;62505;46.070;14.492;2023-12-29T05:54:35;22.40;66.80
74153;DHT22;62505;46.070;14.492;2023-12-29T05:57:05;22.40;66.90
74153;DHT22;62505;46.070;14.492;2023-12-29T05:59:33;22.40;66.90
74153;DHT22;62505;46.070;14.492;2023-12-29T06:02:00;22.40;66.90
74153;DHT22;62505;46.070;14.492;2023-12-29T06:04:27;22.40;66.90
74153;DHT22;62505;46.070;14.492;2023-12-29T06:06:55;22.40;67.00
74153;DHT22;62505;46.070;14.492;2023-12-29T06:09:22;22.40;66.90
74153;DHT22;62505;46.070;14.492;2023-12-29T06:11:50;22.40;66.90
74153;DHT22;62505;46.070;14.492;2023-12-29T06:14:17;22.40;66.90
74153;DHT22;62505;46.070;14.492;2023-12-29T06:16:44;22.40;67.00
74153;DHT22;62505;46.070;14.492;2023-12-29T06:19:11;22.40;66.90
74153;DHT22;62505;46.070;14.492;2023-12-29T06:21:41;22.40;66.90
74153;DHT22;62505;46.070;14.492;2023-12-29T06:24:10;22.40;66.90
74153;DHT22;62505;46.070;14.492;2023-12-29T06:26:37;22.40;66.90
74153;DHT22;62505;46.070;14.492;2023-12-29T06:29:07;22.40;66.90
74153;DHT22;62505;46.070;14.492;2023-12-29T06:31:34;22.40;66.80
74153;DHT22;62505;46.070;14.492;2023-12-29T06:34:02;22.40;66.80
74153;DHT22;62505;46.070;14.492;2023-12-29T06:36:29;22.40;66.80
74153;DHT22;62505;46.070;14.492;2023-12-29T06:38:56;22.40;66.80
74153;DHT22;62505;46.070;14.492;2023-12-29T06:41:24;22.40;67.00
74153;DHT22;62505;46.070;14.492;2023-12-29T06:43:51;22.40;67.10
74153;DHT22;62505;46.070;14.492;2023-12-29T06:46:18;22.40;67.10
74153;DHT22;62505;46.070;14.492;2023-12-29T06:48:45;22.40;67.30
74153;DHT22;62505;46.070;14.492;2023-12-29T06:51:16;22.40;67.40
74153;DHT22;62505;46.070;14.492;2023-12-29T06:53:45;22.40;67.10
74153;DHT22;62505;46.070;14.492;2023-12-29T06:56:13;22.40;67.10
74153;DHT22;62505;46.070;14.492;2023-12-29T06:58:42;22.40;67.30
74153;DHT22;62505;46.070;14.492;2023-12-29T07:01:09;22.40;67.40
74153;DHT22;62505;46.070;14.492;2023-12-29T07:03:37;22.40;67.20
74153;DHT22;62505;46.070;14.492;2023-12-29T07:06:04;22.40;67.10
74153;DHT22;62505;46.070;14.492;2023-12-29T07:08:31;22.40;67.10
74153;DHT22;62505;46.070;14.492;2023-12-29T07:10:58;22.40;67.20
74153;DHT22;62505;46.070;14.492;2023-12-29T07:13:25;22.40;67.20
74153;DHT22;62505;46.070;14.492;2023-12-29T07:15:54;22.40;67.10
74153;DHT22;62505;46.070;14.492;2023-12-29T07:18:21;22.40;67.00
74153;DHT22;62505;46.070;14.492;2023-12-29T07:20:48;22.40;67.00
74153;DHT22;62505;46.070;14.492;2023-12-29T07:23:15;22.40;67.00
74153;DHT22;62505;46.070;14.492;2023-12-29T07:25:42;22.50;67.00
74153;DHT22;62505;46.070;14.492;2023-12-29T07:28:09;22.40;67.70
74153;DHT22;62505;46.070;14.492;2023-12-29T07:30:36;22.40;66.90
74153;DHT22;62505;46.070;14.492;2023-12-29T07:33:05;22.40;66.90
74153;DHT22;62505;46.070;14.492;2023-12-29T07:35:32;22.40;66.80
74153;DHT22;62505;46.070;14.492;2023-12-29T07:37:59;22.40;66.90
74153;DHT22;62505;46.070;14.492;2023-12-29T07:40:27;22.40;66.80
74153;DHT22;62505;46.070;14.492;2023-12-29T07:42:54;22.50;66.80
74153;DHT22;62505;46.070;14.492;2023-12-29T07:45:21;22.40;66.80
74153;DHT22;62505;46.070;14.492;2023-12-29T07:47:48;22.40;66.70
74153;DHT22;62505;46.070;14.492;2023-12-29T07:50:15;22.40;66.80
74153;DHT22;62505;46.070;14.492;2023-12-29T07:52:43;22.40;66.70
74153;DHT22;62505;46.070;14.492;2023-12-29T07:55:10;22.40;66.70
74153;DHT22;62505;46.070;14.492;2023-12-29T07:57:37;22.40;66.70
74153;DHT22;62505;46.070;14.492;2023-12-29T08:00:05;22.40;66.60
74153;DHT22;62505;46.070;14.492;2023-12-29T08:02:32;22.40;66.70
74153;DHT22;62505;46.070;14.492;2023-12-29T08:04:59;22.40;66.70
74153;DHT22;62505;46.070;14.492;2023-12-29T08:07:29;22.40;66.70
74153;DHT22;62505;46.070;14.492;2023-12-29T08:09:56;22.40;66.70
74153;DHT22;62505;46.070;14.492;2023-12-29T08:12:23;22.40;66.50
74153;DHT22;62505;46.070;14.492;2023-12-29T08:14:50;22.40;66.60
74153;DHT22;62505;46.070;14.492;2023-12-29T08:17:17;22.40;66.50
74153;DHT22;62505;46.070;14.492;2023-12-29T08:19:44;22.40;66.50
74153;DHT22;62505;46.070;14.492;2023-12-29T08:22:11;22.40;66.50
74153;DHT22;62505;46.070;14.492;2023-12-29T08:24:41;22.40;66.50
74153;DHT22;62505;46.070;14.492;2023-12-29T08:27:09;22.40;66.50
74153;DHT22;62505;46.070;14.492;2023-12-29T08:29:36;22.40;66.50
74153;DHT22;62505;46.070;14.492;2023-12-29T08:32:04;22.40;66.40
74153;DHT22;62505;46.070;14.492;2023-12-29T08:34:31;22.40;66.40
74153;DHT22;62505;46.070;14.492;2023-12-29T08:36:59;22.40;66.40
74153;DHT22;62505;46.070;14.492;2023-12-29T08:39:26;22.40;66.40
74153;DHT22;62505;46.070;14.492;2023-12-29T08:41:55;22.40;66.40
74153;DHT22;62505;46.070;14.492;2023-12-29T08:44:22;22.40;66.40
74153;DHT22;62505;46.070;14.492;2023-12-29T08:46:50;22.40;66.30
74153;DHT22;62505;46.070;14.492;2023-12-29T08:49:17;22.40;66.30
74153;DHT22;62505;46.070;14.492;2023-12-29T08:51:44;22.40;66.20
74153;DHT22;62505;46.070;14.492;2023-12-29T08:54:11;22.40;66.30
74153;DHT22;62505;46.070;14.492;2023-12-29T08:56:38;22.40;66.20
74153;DHT22;62505;46.070;14.492;2023-12-29T08:59:06;22.40;66.20
74153;DHT22;62505;46.070;14.492;2023-12-29T09:01:33;22.40;66.20
74153;DHT22;62505;46.070;14.492;2023-12-29T09:04:00;22.40;66.30
74153;DHT22;62505;46.070;14.492;2023-12-29T09:06:27;22.40;66.30
74153;DHT22;62505;46.070;14.492;2023-12-29T09:08:54;22.40;66.20
74153;DHT22;62505;46.070;14.492;2023-12-29T09:11:21;22.40;66.20
74153;DHT22;62505;46.070;14.492;2023-12-29T09:13:48;22.40;66.20
74153;DHT22;62505;46.070;14.492;2023-12-29T09:16:16;22.40;66.10
74153;DHT22;62505;46.070;14.492;2023-12-29T09:18:43;22.40;67.00
74153;DHT22;62505;46.070;14.492;2023-12-29T09:21:10;22.40;66.20
74153;DHT22;62505;46.070;14.492;2023-12-29T09:23:37;22.40;66.20
74153;DHT22;62505;46.070;14.492;2023-12-29T09:26:05;22.40;66.10
74153;DHT22;62505;46.070;14.492;2023-12-29T09:28:33;22.40;66.20
74153;DHT22;62505;46.070;14.492;2023-12-29T09:31:00;22.40;66.20
74153;DHT22;62505;46.070;14.492;2023-12-29T09:33:28;22.40;66.20
74153;DHT22;62505;46.070;14.492;2023-12-29T09:35:55;22.40;66.20
74153;DHT22;62505;46.070;14.492;2023-12-29T09:38:22;22.40;66.10
74153;DHT22;62505;46.070;14.492;2023-12-29T09:40:51;22.40;66.20
74153;DHT22;62505;46.070;14.492;2023-12-29T09:43:19;22.40;66.20
74153;DHT22;62505;46.070;14.492;2023-12-29T09:45:47;22.50;66.30
74153;DHT22;62505;46.070;14.492;2023-12-29T09:48:17;22.50;66.30
74153;DHT22;62505;46.070;14.492;2023-12-29T09:50:50;22.50;66.30
74153;DHT22;62505;46.070;14.492;2023-12-29T09:53:19;22.50;66.40
74153;DHT22;62505;46.070;14.492;2023-12-29T09:55:48;22.50;66.30
74153;DHT22;62505;46.070;14.492;2023-12-29T09:58:16;22.50;66.40
74153;DHT22;62505;46.070;14.492;2023-12-29T10:00:44;22.50;66.40
74153;DHT22;62505;46.070;14.492;2023-12-29T10:03:13;22.50;66.40
74153;DHT22;62505;46.070;14.492;2023-12-29T10:05:40;22.50;66.30
74153;DHT22;62505;46.070;14.492;2023-12-29T10:08:09;22.50;66.30
74153;DHT22;62505;46.070;14.492;2023-12-29T10:10:38;22.50;66.30
74153;DHT22;62505;46.070;14.492;2023-12-29T10:13:06;22.50;66.30
74153;DHT22;62505;46.070;14.492;2023-12-29T10:15:41;22.50;66.40
74153;DHT22;62505;46.070;14.492;2023-12-29T10:18:17;22.50;66.30
74153;DHT22;62505;46.070;14.492;2023-12-29T10:20:47;22.50;66.30
74153;DHT22;62505;46.070;14.492;2023-12-29T10:23:20;22.50;66.50
74153;DHT22;62505;46.070;14.492;2023-12-29T10:25:49;22.50;66.40
74153;DHT22;62505;46.070;14.492;2023-12-29T10:28:17;22.60;66.50
74153;DHT22;62505;46.070;14.492;2023-12-29T10:30:44;22.50;66.30
74153;DHT22;62505;46.070;14.492;2023-12-29T10:33:19;22.50;66.20
74153;DHT22;62505;46.070;14.492;2023-12-29T10:35:57;22.50;67.10
74153;DHT22;62505;46.070;14.492;2023-12-29T10:38:29;22.50;66.20
74153;DHT22;62505;46.070;14.492;2023-12-29T10:41:10;22.50;66.30
74153;DHT22;62505;46.070;14.492;2023-12-29T10:43:38;22.50;66.10
74153;DHT22;62505;46.070;14.492;2023-12-29T10:46:06;22.50;66.20
74153;DHT22;62505;46.070;14.492;2023-12-29T10:48:34;22.50;66.20
74153;DHT22;62505;46.070;14.492;2023-12-29T10:51:01;22.50;66.20
74153;DHT22;62505;46.070;14.492;2023-12-29T10:53:31;22.60;66.20
74153;DHT22;62505;46.070;14.492;2023-12-29T10:55:59;22.60;66.00
74153;DHT22;62505;46.070;14.492;2023-12-29T10:58:26;22.60;66.20
74153;DHT22;62505;46.070;14.492;2023-12-29T11:00:55;22.60;66.20
74153;DHT22;62505;46.070;14.492;2023-12-29T11:03:22;22.60;66.20
74153;DHT22;62505;46.070;14.492;2023-12-29T11:05:50;22.60;66.20
74153;DHT22;62505;46.070;14.492;2023-12-29T11:08:27;22.60;66.20
74153;DHT22;62505;46.070;14.492;2023-12-29T11:10:55;22.60;66.20
74153;DHT22;62505;46.070;14.492;2023-12-29T11:13:21;22.60;66.10
74153;DHT22;62505;46.070;14.492;2023-12-29T11:15:49;22.60;66.10
74153;DHT22;62505;46.070;14.492;2023-12-29T11:18:18;22.60;66.00
74153;DHT22;62505;46.070;14.492;2023-12-29T11:20:46;22.60;66.00
74153;DHT22;62505;46.070;14.492;2023-12-29T11:23:16;22.60;65.90
74153;DHT22;62505;46.070;14.492;2023-12-29T11:25:50;22.60;65.90
74153;DHT22;62505;46.070;14.492;2023-12-29T11:28:19;22.50;65.80
74153;DHT22;62505;46.070;14.492;2023-12-29T11:30:47;22.50;65.80
74153;DHT22;62505;46.070;14.492;2023-12-29T11:33:20;22.50;65.80
74153;DHT22;62505;46.070;14.492;2023-12-29T11:35:53;22.50;65.80
74153;DHT22;62505;46.070;14.492;2023-12-29T11:38:31;22.50;65.90
74153;DHT22;62505;46.070;14.492;2023-12-29T11:41:05;22.50;65.80
74153;DHT22;62505;46.070;14.492;2023-12-29T11:43:37;22.50;65.80
74153;DHT22;62505;46.070;14.492;2023-12-29T11:46:05;22.50;65.80
74153;DHT22;62505;46.070;14.492;2023-12-29T11:48:55;22.50;65.80
74153;DHT22;62505;46.070;14.492;2023-12-29T11:51:39;22.50;65.80
74153;DHT22;62505;46.070;14.492;2023-12-29T11:54:22;22.60;66.70
74153;DHT22;62505;46.070;14.492;2023-12-29T11:56:49;22.50;65.80
74153;DHT22;62505;46.070;14.492;2023-12-29T11:59:18;22.50;65.80
74153;DHT22;62505;46.070;14.492;2023-12-29T12:01:50;22.50;65.70
74153;DHT22;62505;46.070;14.492;2023-12-29T12:04:39;22.50;65.80
74153;DHT22;62505;46.070;14.492;2023-12-29T12:07:08;22.50;65.80
74153;DHT22;62505;46.070;14.492;2023-12-29T12:09:35;22.50;65.80
74153;DHT22;62505;46.070;14.492;2023-12-29T12:12:02;22.50;65.80
74153;DHT22;62505;46.070;14.492;2023-12-29T12:14:45;22.50;65.80
74153;DHT22;62505;46.070;14.492;2023-12-29T12:17:27;22.50;65.80
74153;DHT22;62505;46.070;14.492;2023-12-29T12:19:57;22.50;65.80
74153;DHT22;62505;46.070;14.492;2023-12-29T12:22:25;22.50;65.80
74153;DHT22;62505;46.070;14.492;2023-12-29T12:24:56;22.50;65.80
74153;DHT22;62505;46.070;14.492;2023-12-29T12:27:24;22.50;65.80
74153;DHT22;62505;46.070;14.492;2023-12-29T12:29:54;22.50;65.80
74153;DHT22;62505;46.070;14.492;2023-12-29T12:32:25;22.50;65.80
74153;DHT22;62505;46.070;14.492;2023-12-29T12:34:52;22.50;65.80
74153;DHT22;62505;46.070;14.492;2023-12-29T12:37:20;22.50;65.90
74153;DHT22;62505;46.070;14.492;2023-12-29T12:39:47;22.50;65.80
74153;DHT22;62505;46.070;14.492;2023-12-29T12:42:16;22.50;65.90
74153;DHT22;62505;46.070;14.492;2023-12-29T12:44:48;22.50;65.80
74153;DHT22;62505;46.070;14.492;2023-12-29T12:47:23;22.50;65.90
74153;DHT22;62505;46.070;14.492;2023-12-29T12:49:51;22.40;65.80
74153;DHT22;62505;46.070;14.492;2023-12-29T12:52:18;22.50;65.90
74153;DHT22;62505;46.070;14.492;2023-12-29T12:54:46;22.50;65.90
74153;DHT22;62505;46.070;14.492;2023-12-29T12:57:18;22.50;65.90
74153;DHT22;62505;46.070;14.492;2023-12-29T12:59:46;22.50;65.90
74153;DHT22;62505;46.070;14.492;2023-12-29T13:02:13;22.50;65.90
74153;DHT22;62505;46.070;14.492;2023-12-29T13:04:43;22.40;65.90
74153;DHT22;62505;46.070;14.492;2023-12-29T13:07:10;22.50;65.90
74153;DHT22;62505;46.070;14.492;2023-12-29T13:09:41;22.50;65.90
74153;DHT22;62505;46.070;14.492;2023-12-29T13:12:09;22.50;65.90
74153;DHT22;62505;46.070;14.492;2023-12-29T13:14:36;22.50;65.90
74153;DHT22;62505;46.070;14.492;2023-12-29T13:17:08;22.50;65.90
74153;DHT22;62505;46.070;14.492;2023-12-29T13:19:36;22.50;65.90
74153;DHT22;62505;46.070;14.492;2023-12-29T13:22:07;22.50;65.90
74153;DHT22;62505;46.070;14.492;2023-12-29T13:24:35;22.40;65.80
74153;DHT22;62505;46.070;14.492;2023-12-29T13:27:09;22.50;65.50
74153;DHT22;62505;46.070;14.492;2023-12-29T13:29:38;22.50;65.00
74153;DHT22;62505;46.070;14.492;2023-12-29T13:32:10;22.50;64.80
74153;DHT22;62505;46.070;14.492;2023-12-29T13:34:42;22.40;64.80
74153;DHT22;62505;46.070;14.492;2023-12-29T13:37:19;22.40;64.90
74153;DHT22;62505;46.070;14.492;2023-12-29T13:39:54;22.40;64.90
74153;DHT22;62505;46.070;14.492;2023-12-29T13:42:24;22.40;64.60
74153;DHT22;62505;46.070;14.492;2023-12-29T13:44:53;22.40;63.70
74153;DHT22;62505;46.070;14.492;2023-12-29T13:47:20;22.40;62.80
74153;DHT22;62505;46.070;14.492;2023-12-29T13:49:48;22.40;61.90
74153;DHT22;62505;46.070;14.492;2023-12-29T13:52:18;22.40;60.70
74153;DHT22;62505;46.070;14.492;2023-12-29T13:54:46;22.40;60.00
74153;DHT22;62505;46.070;14.492;2023-12-29T13:57:13;22.40;60.30
74153;DHT22;62505;46.070;14.492;2023-12-29T13:59:40;22.40;59.80
74153;DHT22;62505;46.070;14.492;2023-12-29T14:02:23;22.30;59.70
74153;DHT22;62505;46.070;14.492;2023-12-29T14:05:09;22.30;60.00
74153;DHT22;62505;46.070;14.492;2023-12-29T14:07:46;22.30;60.40
74153;DHT22;62505;46.070;14.492;2023-12-29T14:10:14;22.30;60.90
74153;DHT22;62505;46.070;14.492;2023-12-29T14:12:41;22.30;60.70
74153;DHT22;62505;46.070;14.492;2023-12-29T14:15:08;22.40;61.10
74153;DHT22;62505;46.070;14.492;2023-12-29T14:17:36;22.30;60.00
74153;DHT22;62505;46.070;14.492;2023-12-29T14:20:05;22.30;58.00
74153;DHT22;62505;46.070;14.492;2023-12-29T14:22:32;22.30;58.10
74153;DHT22;62505;46.070;14.492;2023-12-29T14:25:05;22.30;58.80
74153;DHT22;62505;46.070;14.492;2023-12-29T14:27:33;22.30;59.30
74153;DHT22;62505;46.070;14.492;2023-12-29T14:30:00;22.30;59.70
74153;DHT22;62505;46.070;14.492;2023-12-29T14:32:27;22.30;60.00
74153;DHT22;62505;46.070;14.492;2023-12-29T14:34:56;22.40;60.80
74153;DHT22;62505;46.070;14.492;2023-12-29T14:37:23;22.40;61.20
74153;DHT22;62505;46.070;14.492;2023-12-29T14:39:51;22.40;61.00
74153;DHT22;62505;46.070;14.492;2023-12-29T14:42:19;22.40;62.00
74153;DHT22;62505;46.070;14.492;2023-12-29T14:44:47;22.40;62.00
74153;DHT22;62505;46.070;14.492;2023-12-29T14:47:14;22.40;62.10
74153;DHT22;62505;46.070;14.492;2023-12-29T14:49:42;22.40;62.60
74153;DHT22;62505;46.070;14.492;2023-12-29T14:52:11;22.40;63.50
74153;DHT22;62505;46.070;14.492;2023-12-29T14:54:38;22.50;63.10
74153;DHT22;62505;46.070;14.492;2023-12-29T14:57:06;22.40;62.60
74153;DHT22;62505;46.070;14.492;2023-12-29T14:59:35;22.40;63.00
74153;DHT22;62505;46.070;14.492;2023-12-29T15:02:02;22.40;62.80
74153;DHT22;62505;46.070;14.492;2023-12-29T15:04:33;22.40;62.90
74153;DHT22;62505;46.070;14.492;2023-12-29T15:07:00;22.40;62.90
74153;DHT22;62505;46.070;14.492;2023-12-29T15:09:27;22.40;62.80
74153;DHT22;62505;46.070;14.492;2023-12-29T15:11:55;22.40;62.70
74153;DHT22;62505;46.070;14.492;2023-12-29T15:14:22;22.40;62.80
74153;DHT22;62505;46.070;14.492;2023-12-29T15:16:51;22.40;62.80
74153;DHT22;62505;46.070;14.492;2023-12-29T15:19:18;22.40;62.70
74153;DHT22;62505;46.070;14.492;2023-12-29T15:21:45;22.40;62.70